sensor_id;sensor_type;location;lat;lon;timestamp;P1;durP1;ratioP1;P2;durP2;ratioP2
47009;SDS011;59230;54.164;-3.124;2023-02-08T00:02:06;80.22;;;18.73;;
47009;SDS011;59230;54.164;-3.124;2023-02-08T00:04:35;93.53;;;19.92;;
47009;SDS011;59230;54.164;-3.124;2023-02-08T00:07:04;77.00;;;18.23;;
47009;SDS011;59230;54.164;-3.124;2023-02-08T00:09:29;78.78;;;17.75;;
47009;SDS011;59230;54.164;-3.124;2023-02-08T00:11:55;81.68;;;18.05;;
47009;SDS011;59230;54.164;-3.124;2023-02-08T00:14:21;62.75;;;15.98;;
47009;SDS011;59230;54.164;-3.124;2023-02-08T00:16:48;102.78;;;19.38;;
47009;SDS011;59230;54.164;-3.124;2023-02-08T00:19:14;88.28;;;19.98;;
47009;SDS011;59230;54.164;-3.124;2023-02-08T00:21:40;55.13;;;17.33;;
47009;SDS011;59230;54.164;-3.124;2023-02-08T00:24:06;99.85;;;21.35;;
47009;SDS011;59230;54.164;-3.124;2023-02-08T00:26:34;89.28;;;23.63;;
47009;SDS011;59230;54.164;-3.124;2023-02-08T00:29:01;92.25;;;23.05;;
47009;SDS011;59230;54.164;-3.124;2023-02-08T00:31:28;76.88;;;22.63;;
47009;SDS011;59230;54.164;-3.124;2023-02-08T00:33:54;88.07;;;24.10;;
47009;SDS011;59230;54.164;-3.124;2023-02-08T00:36:20;80.07;;;24.20;;
47009;SDS011;59230;54.164;-3.124;2023-02-08T00:38:46;87.53;;;24.88;;
47009;SDS011;59230;54.164;-3.124;2023-02-08T00:41:13;99.90;;;26.52;;
47009;SDS011;59230;54.164;-3.124;2023-02-08T00:43:39;91.25;;;27.40;;
47009;SDS011;59230;54.164;-3.124;2023-02-08T00:46:05;97.22;;;28.88;;
47009;SDS011;59230;54.164;-3.124;2023-02-08T00:48:33;90.63;;;25.48;;
47009;SDS011;59230;54.164;-3.124;2023-02-08T00:51:05;95.70;;;27.35;;
47009;SDS011;59230;54.164;-3.124;2023-02-08T00:53:37;84.57;;;27.42;;
47009;SDS011;59230;54.164;-3.124;2023-02-08T00:56:09;111.30;;;30.27;;
47009;SDS011;59230;54.164;-3.124;2023-02-08T00:58:37;96.35;;;29.63;;
47009;SDS011;59230;54.164;-3.124;2023-02-08T01:01:04;89.72;;;29.67;;
47009;SDS011;59230;54.164;-3.124;2023-02-08T01:03:32;109.47;;;31.55;;
47009;SDS011;59230;54.164;-3.124;2023-02-08T01:06:02;90.47;;;30.40;;
47009;SDS011;59230;54.164;-3.124;2023-02-08T01:08:30;84.30;;;28.67;;
47009;SDS011;59230;54.164;-3.124;2023-02-08T01:11:08;116.47;;;32.25;;
47009;SDS011;59230;54.164;-3.124;2023-02-08T01:13:38;102.97;;;32.75;;
47009;SDS011;59230;54.164;-3.124;2023-02-08T01:16:07;111.63;;;37.13;;
47009;SDS011;59230;54.164;-3.124;2023-02-08T01:18:35;126.18;;;36.80;;
47009;SDS011;59230;54.164;-3.124;2023-02-08T01:21:08;122.32;;;38.20;;
47009;SDS011;59230;54.164;-3.124;2023-02-08T01:23:35;124.57;;;39.20;;
47009;SDS011;59230;54.164;-3.124;2023-02-08T01:26:03;114.63;;;38.40;;
47009;SDS011;59230;54.164;-3.124;2023-02-08T01:28:31;91.25;;;32.25;;
47009;SDS011;59230;54.164;-3.124;2023-02-08T01:30:58;101.95;;;36.00;;
47009;SDS011;59230;54.164;-3.124;2023-02-08T01:33:24;128.65;;;39.58;;
47009;SDS011;59230;54.164;-3.124;2023-02-08T01:35:50;115.22;;;39.78;;
47009;SDS011;59230;54.164;-3.124;2023-02-08T01:38:18;116.85;;;38.08;;
47009;SDS011;59230;54.164;-3.124;2023-02-08T01:40:45;126.35;;;38.53;;
47009;SDS011;59230;54.164;-3.124;2023-02-08T01:43:26;105.80;;;38.17;;
47009;SDS011;59230;54.164;-3.124;2023-02-08T01:45:57;110.82;;;38.22;;
47009;SDS011;59230;54.164;-3.124;2023-02-08T01:48:25;114.70;;;37.85;;
47009;SDS011;59230;54.164;-3.124;2023-02-08T01:51:07;126.45;;;39.30;;
47009;SDS011;59230;54.164;-3.124;2023-02-08T01:53:39;119.03;;;39.35;;
47009;SDS011;59230;54.164;-3.124;2023-02-08T01:56:11;127.85;;;40.30;;
47009;SDS011;59230;54.164;-3.124;2023-02-08T01:58:49;145.07;;;42.47;;
47009;SDS011;59230;54.164;-3.124;2023-02-08T02:01:18;127.13;;;40.95;;
47009;SDS011;59230;54.164;-3.124;2023-02-08T02:03:45;94.95;;;36.80;;
47009;SDS011;59230;54.164;-3.124;2023-02-08T02:06:17;135.20;;;41.78;;
47009;SDS011;59230;54.164;-3.124;2023-02-08T02:08:51;121.90;;;38.35;;
47009;SDS011;59230;54.164;-3.124;2023-02-08T02:11:40;113.38;;;40.10;;
47009;SDS011;59230;54.164;-3.124;2023-02-08T02:14:07;128.30;;;40.25;;
47009;SDS011;59230;54.164;-3.124;2023-02-08T02:16:37;101.05;;;36.60;;
47009;SDS011;59230;54.164;-3.124;2023-02-08T02:19:05;135.82;;;43.28;;
47009;SDS011;59230;54.164;-3.124;2023-02-08T02:22:06;107.70;;;38.33;;
47009;SDS011;59230;54.164;-3.124;2023-02-08T02:25:03;126.80;;;40.58;;
47009;SDS011;59230;54.164;-3.124;2023-02-08T02:39:35;140.15;;;43.88;;
47009;SDS011;59230;54.164;-3.124;2023-02-08T02:42:13;119.38;;;44.03;;
47009;SDS011;59230;54.164;-3.124;2023-02-08T02:45:32;123.88;;;41.95;;
47009;SDS011;59230;54.164;-3.124;2023-02-08T02:48:45;145.23;;;44.30;;
47009;SDS011;59230;54.164;-3.124;2023-02-08T02:51:50;133.35;;;41.78;;
47009;SDS011;59230;54.164;-3.124;2023-02-08T02:54:18;133.73;;;43.38;;
47009;SDS011;59230;54.164;-3.124;2023-02-08T02:56:52;99.07;;;40.03;;
47009;SDS011;59230;54.164;-3.124;2023-02-08T02:59:24;126.07;;;45.13;;
47009;SDS011;59230;54.164;-3.124;2023-02-08T03:01:52;107.40;;;43.25;;
47009;SDS011;59230;54.164;-3.124;2023-02-08T03:05:04;141.95;;;48.75;;
47009;SDS011;59230;54.164;-3.124;2023-02-08T03:16:48;102.85;;;40.97;;
47009;SDS011;59230;54.164;-3.124;2023-02-08T03:21:42;108.63;;;39.75;;
47009;SDS011;59230;54.164;-3.124;2023-02-08T03:30:43;115.13;;;40.15;;
47009;SDS011;59230;54.164;-3.124;2023-02-08T03:32:53;121.50;;;42.03;;
47009;SDS011;59230;54.164;-3.124;2023-02-08T03:35:47;104.75;;;41.38;;
47009;SDS011;59230;54.164;-3.124;2023-02-08T03:41:20;105.97;;;37.42;;
47009;SDS011;59230;54.164;-3.124;2023-02-08T03:43:55;105.30;;;38.47;;
47009;SDS011;59230;54.164;-3.124;2023-02-08T03:46:37;98.43;;;39.45;;
47009;SDS011;59230;54.164;-3.124;2023-02-08T03:49:15;105.88;;;39.80;;
47009;SDS011;59230;54.164;-3.124;2023-02-08T03:51:43;105.68;;;40.45;;
47009;SDS011;59230;54.164;-3.124;2023-02-08T03:54:14;93.88;;;37.22;;
47009;SDS011;59230;54.164;-3.124;2023-02-08T03:56:56;99.55;;;38.80;;
47009;SDS011;59230;54.164;-3.124;2023-02-08T03:59:39;116.38;;;39.53;;
47009;SDS011;59230;54.164;-3.124;2023-02-08T04:02:08;106.63;;;39.53;;
47009;SDS011;59230;54.164;-3.124;2023-02-08T04:04:42;102.20;;;38.00;;
47009;SDS011;59230;54.164;-3.124;2023-02-08T04:07:17;95.78;;;38.97;;
47009;SDS011;59230;54.164;-3.124;2023-02-08T04:09:44;112.85;;;42.17;;
47009;SDS011;59230;54.164;-3.124;2023-02-08T04:12:13;98.10;;;38.13;;
47009;SDS011;59230;54.164;-3.124;2023-02-08T04:14:40;103.57;;;39.95;;
47009;SDS011;59230;54.164;-3.124;2023-02-08T04:17:10;91.43;;;39.47;;
47009;SDS011;59230;54.164;-3.124;2023-02-08T04:19:35;107.00;;;39.50;;
47009;SDS011;59230;54.164;-3.124;2023-02-08T04:22:01;100.78;;;39.78;;
47009;SDS011;59230;54.164;-3.124;2023-02-08T04:24:28;107.22;;;39.17;;
47009;SDS011;59230;54.164;-3.124;2023-02-08T04:26:56;115.53;;;39.75;;
47009;SDS011;59230;54.164;-3.124;2023-02-08T04:29:23;118.97;;;40.63;;
47009;SDS011;59230;54.164;-3.124;2023-02-08T04:31:51;105.93;;;39.97;;
47009;SDS011;59230;54.164;-3.124;2023-02-08T04:34:17;101.70;;;40.92;;
47009;SDS011;59230;54.164;-3.124;2023-02-08T04:36:43;114.90;;;42.00;;
47009;SDS011;59230;54.164;-3.124;2023-02-08T04:39:08;112.55;;;42.85;;
47009;SDS011;59230;54.164;-3.124;2023-02-08T04:41:37;94.68;;;39.22;;
47009;SDS011;59230;54.164;-3.124;2023-02-08T04:44:04;107.75;;;40.70;;
47009;SDS011;59230;54.164;-3.124;2023-02-08T04:46:29;106.90;;;41.80;;
47009;SDS011;59230;54.164;-3.124;2023-02-08T04:48:57;105.55;;;41.75;;
47009;SDS011;59230;54.164;-3.124;2023-02-08T04:51:26;114.32;;;43.90;;
47009;SDS011;59230;54.164;-3.124;2023-02-08T04:53:52;112.30;;;43.13;;
47009;SDS011;59230;54.164;-3.124;2023-02-08T04:56:21;107.70;;;41.22;;
47009;SDS011;59230;54.164;-3.124;2023-02-08T04:58:49;124.75;;;41.47;;
47009;SDS011;59230;54.164;-3.124;2023-02-08T05:01:15;109.70;;;41.15;;
47009;SDS011;59230;54.164;-3.124;2023-02-08T05:03:41;93.63;;;36.28;;
47009;SDS011;59230;54.164;-3.124;2023-02-08T05:06:08;108.22;;;37.70;;
47009;SDS011;59230;54.164;-3.124;2023-02-08T05:08:34;107.05;;;38.72;;
47009;SDS011;59230;54.164;-3.124;2023-02-08T05:11:01;103.07;;;39.63;;
47009;SDS011;59230;54.164;-3.124;2023-02-08T05:13:26;114.25;;;41.10;;
47009;SDS011;59230;54.164;-3.124;2023-02-08T05:15:54;96.05;;;36.95;;
47009;SDS011;59230;54.164;-3.124;2023-02-08T05:18:20;108.15;;;39.72;;
47009;SDS011;59230;54.164;-3.124;2023-02-08T05:20:52;110.30;;;39.45;;
47009;SDS011;59230;54.164;-3.124;2023-02-08T05:23:29;119.07;;;39.63;;
47009;SDS011;59230;54.164;-3.124;2023-02-08T05:26:04;109.32;;;39.03;;
47009;SDS011;59230;54.164;-3.124;2023-02-08T05:28:31;101.53;;;39.28;;
47009;SDS011;59230;54.164;-3.124;2023-02-08T05:31:07;111.60;;;41.25;;
47009;SDS011;59230;54.164;-3.124;2023-02-08T05:33:38;97.32;;;39.60;;
47009;SDS011;59230;54.164;-3.124;2023-02-08T05:36:07;112.18;;;36.17;;
47009;SDS011;59230;54.164;-3.124;2023-02-08T05:38:37;95.82;;;39.63;;
47009;SDS011;59230;54.164;-3.124;2023-02-08T05:41:04;100.07;;;38.00;;
47009;SDS011;59230;54.164;-3.124;2023-02-08T05:43:31;101.72;;;39.05;;
47009;SDS011;59230;54.164;-3.124;2023-02-08T05:45:56;100.45;;;39.50;;
47009;SDS011;59230;54.164;-3.124;2023-02-08T05:48:22;106.35;;;40.22;;
47009;SDS011;59230;54.164;-3.124;2023-02-08T05:50:51;111.10;;;42.47;;
47009;SDS011;59230;54.164;-3.124;2023-02-08T05:53:18;129.23;;;44.20;;
47009;SDS011;59230;54.164;-3.124;2023-02-08T05:55:44;116.05;;;43.30;;
47009;SDS011;59230;54.164;-3.124;2023-02-08T05:58:11;114.50;;;43.10;;
47009;SDS011;59230;54.164;-3.124;2023-02-08T06:00:38;109.75;;;39.28;;
47009;SDS011;59230;54.164;-3.124;2023-02-08T06:03:03;98.57;;;41.15;;
47009;SDS011;59230;54.164;-3.124;2023-02-08T06:05:30;95.70;;;39.85;;
47009;SDS011;59230;54.164;-3.124;2023-02-08T06:07:57;104.35;;;40.03;;
47009;SDS011;59230;54.164;-3.124;2023-02-08T06:10:29;107.68;;;41.67;;
47009;SDS011;59230;54.164;-3.124;2023-02-08T06:12:56;110.95;;;40.60;;
47009;SDS011;59230;54.164;-3.124;2023-02-08T06:15:21;101.38;;;41.78;;
47009;SDS011;59230;54.164;-3.124;2023-02-08T06:17:47;110.60;;;41.38;;
47009;SDS011;59230;54.164;-3.124;2023-02-08T06:20:13;110.15;;;41.92;;
47009;SDS011;59230;54.164;-3.124;2023-02-08T06:22:42;119.97;;;41.55;;
47009;SDS011;59230;54.164;-3.124;2023-02-08T06:25:08;115.82;;;43.05;;
47009;SDS011;59230;54.164;-3.124;2023-02-08T06:27:35;106.32;;;39.58;;
47009;SDS011;59230;54.164;-3.124;2023-02-08T06:30:07;95.22;;;40.15;;
47009;SDS011;59230;54.164;-3.124;2023-02-08T06:32:34;117.70;;;41.53;;
47009;SDS011;59230;54.164;-3.124;2023-02-08T06:35:00;125.22;;;41.03;;
47009;SDS011;59230;54.164;-3.124;2023-02-08T06:37:27;125.95;;;44.30;;
47009;SDS011;59230;54.164;-3.124;2023-02-08T06:39:57;109.30;;;40.42;;
47009;SDS011;59230;54.164;-3.124;2023-02-08T06:42:26;101.90;;;37.85;;
47009;SDS011;59230;54.164;-3.124;2023-02-08T06:44:54;103.13;;;37.97;;
47009;SDS011;59230;54.164;-3.124;2023-02-08T06:47:22;96.43;;;38.47;;
47009;SDS011;59230;54.164;-3.124;2023-02-08T06:49:51;97.43;;;37.53;;
47009;SDS011;59230;54.164;-3.124;2023-02-08T06:52:17;97.85;;;36.75;;
47009;SDS011;59230;54.164;-3.124;2023-02-08T06:54:44;103.70;;;41.10;;
47009;SDS011;59230;54.164;-3.124;2023-02-08T06:57:11;109.28;;;37.90;;
47009;SDS011;59230;54.164;-3.124;2023-02-08T06:59:39;117.22;;;39.65;;
47009;SDS011;59230;54.164;-3.124;2023-02-08T07:02:17;110.93;;;38.00;;
47009;SDS011;59230;54.164;-3.124;2023-02-08T07:04:46;131.57;;;43.42;;
47009;SDS011;59230;54.164;-3.124;2023-02-08T07:07:13;134.32;;;42.20;;
47009;SDS011;59230;54.164;-3.124;2023-02-08T07:09:42;133.35;;;42.25;;
47009;SDS011;59230;54.164;-3.124;2023-02-08T07:12:10;125.55;;;41.47;;
47009;SDS011;59230;54.164;-3.124;2023-02-08T07:14:39;111.97;;;39.97;;
47009;SDS011;59230;54.164;-3.124;2023-02-08T07:17:06;94.30;;;34.65;;
47009;SDS011;59230;54.164;-3.124;2023-02-08T07:19:33;111.35;;;36.78;;
47009;SDS011;59230;54.164;-3.124;2023-02-08T07:22:00;84.00;;;33.75;;
47009;SDS011;59230;54.164;-3.124;2023-02-08T07:24:32;110.05;;;35.05;;
47009;SDS011;59230;54.164;-3.124;2023-02-08T07:27:02;96.65;;;35.08;;
47009;SDS011;59230;54.164;-3.124;2023-02-08T07:29:32;94.25;;;34.47;;
47009;SDS011;59230;54.164;-3.124;2023-02-08T07:32:01;99.90;;;34.95;;
47009;SDS011;59230;54.164;-3.124;2023-02-08T07:34:28;105.85;;;34.80;;
47009;SDS011;59230;54.164;-3.124;2023-02-08T07:36:58;110.93;;;38.22;;
47009;SDS011;59230;54.164;-3.124;2023-02-08T07:39:25;99.72;;;36.00;;
47009;SDS011;59230;54.164;-3.124;2023-02-08T07:41:50;101.75;;;34.50;;
47009;SDS011;59230;54.164;-3.124;2023-02-08T07:44:18;104.90;;;37.75;;
47009;SDS011;59230;54.164;-3.124;2023-02-08T07:46:45;112.22;;;37.80;;
47009;SDS011;59230;54.164;-3.124;2023-02-08T07:49:14;101.20;;;37.88;;
47009;SDS011;59230;54.164;-3.124;2023-02-08T07:51:40;119.38;;;39.85;;
47009;SDS011;59230;54.164;-3.124;2023-02-08T07:54:05;115.32;;;39.53;;
47009;SDS011;59230;54.164;-3.124;2023-02-08T07:56:34;118.13;;;39.17;;
47009;SDS011;59230;54.164;-3.124;2023-02-08T07:59:01;114.03;;;38.35;;
47009;SDS011;59230;54.164;-3.124;2023-02-08T08:01:27;105.43;;;37.90;;
47009;SDS011;59230;54.164;-3.124;2023-02-08T08:03:54;130.25;;;39.88;;
47009;SDS011;59230;54.164;-3.124;2023-02-08T08:06:21;108.30;;;39.22;;
47009;SDS011;59230;54.164;-3.124;2023-02-08T08:08:49;123.05;;;41.13;;
47009;SDS011;59230;54.164;-3.124;2023-02-08T08:11:15;119.15;;;43.92;;
47009;SDS011;59230;54.164;-3.124;2023-02-08T08:13:44;118.45;;;41.00;;
47009;SDS011;59230;54.164;-3.124;2023-02-08T08:16:15;122.82;;;41.42;;
47009;SDS011;59230;54.164;-3.124;2023-02-08T08:18:41;102.78;;;40.80;;
47009;SDS011;59230;54.164;-3.124;2023-02-08T08:21:07;106.05;;;39.85;;
47009;SDS011;59230;54.164;-3.124;2023-02-08T08:23:36;124.05;;;41.25;;
47009;SDS011;59230;54.164;-3.124;2023-02-08T08:26:07;110.13;;;41.58;;
47009;SDS011;59230;54.164;-3.124;2023-02-08T08:28:35;114.78;;;41.53;;
47009;SDS011;59230;54.164;-3.124;2023-02-08T08:31:08;114.45;;;42.92;;
47009;SDS011;59230;54.164;-3.124;2023-02-08T08:33:37;112.95;;;44.03;;
47009;SDS011;59230;54.164;-3.124;2023-02-08T08:36:04;115.78;;;43.58;;
47009;SDS011;59230;54.164;-3.124;2023-02-08T08:38:31;116.18;;;43.38;;
47009;SDS011;59230;54.164;-3.124;2023-02-08T08:40:58;116.47;;;41.50;;
47009;SDS011;59230;54.164;-3.124;2023-02-08T08:43:24;118.45;;;42.40;;
47009;SDS011;59230;54.164;-3.124;2023-02-08T08:45:51;119.18;;;42.05;;
47009;SDS011;59230;54.164;-3.124;2023-02-08T08:48:19;130.68;;;42.45;;
47009;SDS011;59230;54.164;-3.124;2023-02-08T08:50:48;122.35;;;43.85;;
47009;SDS011;59230;54.164;-3.124;2023-02-08T08:53:16;113.68;;;43.58;;
47009;SDS011;59230;54.164;-3.124;2023-02-08T08:55:43;117.20;;;43.05;;
47009;SDS011;59230;54.164;-3.124;2023-02-08T08:58:10;117.13;;;41.95;;
47009;SDS011;59230;54.164;-3.124;2023-02-08T09:00:37;135.88;;;45.65;;
47009;SDS011;59230;54.164;-3.124;2023-02-08T09:03:03;115.85;;;42.45;;
47009;SDS011;59230;54.164;-3.124;2023-02-08T09:05:31;94.82;;;40.80;;
47009;SDS011;59230;54.164;-3.124;2023-02-08T09:07:59;105.55;;;41.10;;
47009;SDS011;59230;54.164;-3.124;2023-02-08T09:10:27;112.38;;;42.97;;
47009;SDS011;59230;54.164;-3.124;2023-02-08T09:12:56;112.20;;;41.75;;
47009;SDS011;59230;54.164;-3.124;2023-02-08T09:15:22;111.18;;;44.63;;
47009;SDS011;59230;54.164;-3.124;2023-02-08T09:17:48;125.53;;;45.75;;
47009;SDS011;59230;54.164;-3.124;2023-02-08T09:20:15;106.20;;;43.47;;
47009;SDS011;59230;54.164;-3.124;2023-02-08T09:22:40;124.65;;;46.58;;
47009;SDS011;59230;54.164;-3.124;2023-02-08T09:25:09;126.97;;;45.90;;
47009;SDS011;59230;54.164;-3.124;2023-02-08T09:27:37;135.15;;;46.85;;
47009;SDS011;59230;54.164;-3.124;2023-02-08T09:30:03;107.95;;;43.92;;
47009;SDS011;59230;54.164;-3.124;2023-02-08T09:32:34;99.72;;;41.75;;
47009;SDS011;59230;54.164;-3.124;2023-02-08T09:35:02;116.97;;;42.85;;
47009;SDS011;59230;54.164;-3.124;2023-02-08T09:37:28;103.78;;;41.03;;
47009;SDS011;59230;54.164;-3.124;2023-02-08T09:39:57;108.97;;;41.28;;
47009;SDS011;59230;54.164;-3.124;2023-02-08T09:45:23;96.10;;;36.15;;
47009;SDS011;59230;54.164;-3.124;2023-02-08T09:50:45;111.35;;;42.67;;
47009;SDS011;59230;54.164;-3.124;2023-02-08T09:53:16;93.15;;;35.47;;
47009;SDS011;59230;54.164;-3.124;2023-02-08T09:56:13;97.43;;;36.33;;
47009;SDS011;59230;54.164;-3.124;2023-02-08T09:58:45;94.93;;;35.20;;
47009;SDS011;59230;54.164;-3.124;2023-02-08T10:01:24;76.28;;;31.92;;
47009;SDS011;59230;54.164;-3.124;2023-02-08T10:03:56;90.20;;;35.08;;
47009;SDS011;59230;54.164;-3.124;2023-02-08T10:06:27;85.30;;;31.85;;
47009;SDS011;59230;54.164;-3.124;2023-02-08T10:08:54;70.95;;;30.75;;
47009;SDS011;59230;54.164;-3.124;2023-02-08T10:11:39;73.13;;;28.92;;
47009;SDS011;59230;54.164;-3.124;2023-02-08T10:23:03;63.83;;;25.52;;
47009;SDS011;59230;54.164;-3.124;2023-02-08T10:26:03;60.60;;;25.05;;
47009;SDS011;59230;54.164;-3.124;2023-02-08T10:34:03;59.08;;;27.05;;
47009;SDS011;59230;54.164;-3.124;2023-02-08T10:36:57;65.03;;;26.02;;
47009;SDS011;59230;54.164;-3.124;2023-02-08T10:39:26;52.22;;;25.02;;
47009;SDS011;59230;54.164;-3.124;2023-02-08T10:41:58;61.05;;;25.40;;
47009;SDS011;59230;54.164;-3.124;2023-02-08T10:44:39;63.13;;;25.17;;
47009;SDS011;59230;54.164;-3.124;2023-02-08T10:47:16;62.47;;;25.35;;
47009;SDS011;59230;54.164;-3.124;2023-02-08T10:50:43;68.05;;;24.17;;
47009;SDS011;59230;54.164;-3.124;2023-02-08T10:53:04;51.15;;;23.45;;
47009;SDS011;59230;54.164;-3.124;2023-02-08T10:55:31;52.67;;;24.33;;
47009;SDS011;59230;54.164;-3.124;2023-02-08T10:58:03;68.35;;;28.00;;
47009;SDS011;59230;54.164;-3.124;2023-02-08T11:00:30;48.15;;;21.40;;
47009;SDS011;59230;54.164;-3.124;2023-02-08T11:03:21;55.72;;;22.95;;
47009;SDS011;59230;54.164;-3.124;2023-02-08T11:05:51;59.50;;;21.77;;
47009;SDS011;59230;54.164;-3.124;2023-02-08T11:08:21;58.88;;;22.17;;
47009;SDS011;59230;54.164;-3.124;2023-02-08T11:11:06;43.38;;;20.40;;
47009;SDS011;59230;54.164;-3.124;2023-02-08T11:16:21;51.83;;;17.60;;
47009;SDS011;59230;54.164;-3.124;2023-02-08T11:18:53;41.47;;;17.15;;
47009;SDS011;59230;54.164;-3.124;2023-02-08T11:21:47;40.08;;;17.65;;
47009;SDS011;59230;54.164;-3.124;2023-02-08T11:26:45;38.85;;;15.70;;
47009;SDS011;59230;54.164;-3.124;2023-02-08T11:29:18;36.15;;;14.98;;
47009;SDS011;59230;54.164;-3.124;2023-02-08T11:34:50;39.53;;;15.15;;
47009;SDS011;59230;54.164;-3.124;2023-02-08T11:39:55;40.72;;;15.23;;
47009;SDS011;59230;54.164;-3.124;2023-02-08T11:42:26;46.20;;;16.90;;
47009;SDS011;59230;54.164;-3.124;2023-02-08T11:44:58;46.90;;;16.58;;
47009;SDS011;59230;54.164;-3.124;2023-02-08T11:47:28;38.88;;;16.65;;
47009;SDS011;59230;54.164;-3.124;2023-02-08T11:49:58;37.67;;;16.83;;
47009;SDS011;59230;54.164;-3.124;2023-02-08T11:52:41;45.13;;;16.60;;
47009;SDS011;59230;54.164;-3.124;2023-02-08T11:57:52;41.65;;;15.35;;
47009;SDS011;59230;54.164;-3.124;2023-02-08T12:00:31;35.50;;;15.02;;
47009;SDS011;59230;54.164;-3.124;2023-02-08T12:03:11;38.33;;;14.25;;
47009;SDS011;59230;54.164;-3.124;2023-02-08T12:08:32;52.10;;;16.15;;
47009;SDS011;59230;54.164;-3.124;2023-02-08T12:14:02;42.55;;;14.05;;
47009;SDS011;59230;54.164;-3.124;2023-02-08T12:19:50;28.08;;;12.60;;
47009;SDS011;59230;54.164;-3.124;2023-02-08T12:22:53;34.50;;;14.32;;
47009;SDS011;59230;54.164;-3.124;2023-02-08T12:25:43;39.30;;;14.68;;
47009;SDS011;59230;54.164;-3.124;2023-02-08T12:30:59;33.47;;;13.80;;
47009;SDS011;59230;54.164;-3.124;2023-02-08T12:34:28;37.00;;;14.95;;
47009;SDS011;59230;54.164;-3.124;2023-02-08T12:39:24;35.25;;;13.70;;
47009;SDS011;59230;54.164;-3.124;2023-02-08T12:42:23;30.73;;;14.25;;
47009;SDS011;59230;54.164;-3.124;2023-02-08T12:57:59;40.00;;;13.27;;
47009;SDS011;59230;54.164;-3.124;2023-02-08T13:00:31;35.60;;;14.65;;
47009;SDS011;59230;54.164;-3.124;2023-02-08T13:05:39;38.30;;;15.30;;
47009;SDS011;59230;54.164;-3.124;2023-02-08T13:08:31;29.42;;;13.52;;
47009;SDS011;59230;54.164;-3.124;2023-02-08T13:11:03;34.25;;;14.25;;
47009;SDS011;59230;54.164;-3.124;2023-02-08T13:13:35;46.15;;;14.05;;
47009;SDS011;59230;54.164;-3.124;2023-02-08T13:16:19;29.02;;;12.57;;
47009;SDS011;59230;54.164;-3.124;2023-02-08T13:18:53;29.75;;;13.15;;
47009;SDS011;59230;54.164;-3.124;2023-02-08T13:21:33;32.92;;;13.95;;
47009;SDS011;59230;54.164;-3.124;2023-02-08T13:24:17;33.45;;;13.52;;
47009;SDS011;59230;54.164;-3.124;2023-02-08T13:27:09;29.77;;;13.10;;
47009;SDS011;59230;54.164;-3.124;2023-02-08T13:29:45;38.55;;;14.88;;
47009;SDS011;59230;54.164;-3.124;2023-02-08T13:32:30;32.60;;;14.30;;
47009;SDS011;59230;54.164;-3.124;2023-02-08T13:35:28;36.50;;;13.93;;
47009;SDS011;59230;54.164;-3.124;2023-02-08T13:38:00;35.03;;;14.30;;
47009;SDS011;59230;54.164;-3.124;2023-02-08T13:40:29;34.80;;;14.93;;
47009;SDS011;59230;54.164;-3.124;2023-02-08T13:45:49;38.80;;;18.05;;
47009;SDS011;59230;54.164;-3.124;2023-02-08T13:48:17;41.45;;;15.32;;
47009;SDS011;59230;54.164;-3.124;2023-02-08T13:50:47;40.13;;;16.08;;
47009;SDS011;59230;54.164;-3.124;2023-02-08T13:53:18;39.10;;;14.35;;
47009;SDS011;59230;54.164;-3.124;2023-02-08T13:56:11;36.08;;;14.80;;
47009;SDS011;59230;54.164;-3.124;2023-02-08T14:01:25;41.05;;;14.50;;
47009;SDS011;59230;54.164;-3.124;2023-02-08T14:12:04;35.50;;;13.48;;
47009;SDS011;59230;54.164;-3.124;2023-02-08T14:14:37;32.45;;;13.60;;
47009;SDS011;59230;54.164;-3.124;2023-02-08T14:19:29;38.25;;;13.50;;
47009;SDS011;59230;54.164;-3.124;2023-02-08T14:22:05;39.72;;;16.50;;
47009;SDS011;59230;54.164;-3.124;2023-02-08T14:24:37;37.95;;;15.45;;
47009;SDS011;59230;54.164;-3.124;2023-02-08T14:32:50;34.53;;;13.50;;
47009;SDS011;59230;54.164;-3.124;2023-02-08T14:35:31;34.63;;;13.27;;
47009;SDS011;59230;54.164;-3.124;2023-02-08T14:40:51;39.20;;;12.07;;
47009;SDS011;59230;54.164;-3.124;2023-02-08T14:45:44;38.03;;;11.85;;
47009;SDS011;59230;54.164;-3.124;2023-02-08T14:53:56;31.45;;;12.73;;
47009;SDS011;59230;54.164;-3.124;2023-02-08T14:56:27;33.97;;;11.63;;
47009;SDS011;59230;54.164;-3.124;2023-02-08T15:01:41;31.23;;;11.35;;
47009;SDS011;59230;54.164;-3.124;2023-02-08T15:04:11;30.73;;;12.85;;
47009;SDS011;59230;54.164;-3.124;2023-02-08T15:09:38;35.08;;;10.32;;
47009;SDS011;59230;54.164;-3.124;2023-02-08T15:14:53;28.50;;;11.07;;
47009;SDS011;59230;54.164;-3.124;2023-02-08T15:17:32;33.90;;;11.10;;
47009;SDS011;59230;54.164;-3.124;2023-02-08T15:20:31;31.58;;;11.43;;
47009;SDS011;59230;54.164;-3.124;2023-02-08T15:23:01;32.40;;;10.98;;
47009;SDS011;59230;54.164;-3.124;2023-02-08T15:25:52;31.13;;;10.98;;
47009;SDS011;59230;54.164;-3.124;2023-02-08T15:28:23;33.75;;;11.35;;
47009;SDS011;59230;54.164;-3.124;2023-02-08T15:33:21;35.08;;;11.80;;
47009;SDS011;59230;54.164;-3.124;2023-02-08T15:36:04;41.65;;;11.90;;
47009;SDS011;59230;54.164;-3.124;2023-02-08T15:38:59;36.83;;;11.05;;
47009;SDS011;59230;54.164;-3.124;2023-02-08T15:41:35;30.65;;;10.18;;
47009;SDS011;59230;54.164;-3.124;2023-02-08T15:44:21;33.35;;;9.38;;
47009;SDS011;59230;54.164;-3.124;2023-02-08T15:46:50;38.53;;;10.00;;
47009;SDS011;59230;54.164;-3.124;2023-02-08T15:49:34;39.20;;;11.60;;
47009;SDS011;59230;54.164;-3.124;2023-02-08T15:52:04;42.17;;;12.35;;
47009;SDS011;59230;54.164;-3.124;2023-02-08T15:54:32;38.03;;;13.45;;
47009;SDS011;59230;54.164;-3.124;2023-02-08T15:57:35;36.53;;;11.20;;
47009;SDS011;59230;54.164;-3.124;2023-02-08T16:00:19;39.83;;;11.20;;
47009;SDS011;59230;54.164;-3.124;2023-02-08T16:02:49;36.30;;;10.80;;
47009;SDS011;59230;54.164;-3.124;2023-02-08T16:05:23;32.53;;;10.82;;
47009;SDS011;59230;54.164;-3.124;2023-02-08T16:07:57;34.80;;;11.40;;
47009;SDS011;59230;54.164;-3.124;2023-02-08T16:10:34;35.40;;;12.57;;
47009;SDS011;59230;54.164;-3.124;2023-02-08T16:13:21;37.13;;;12.88;;
47009;SDS011;59230;54.164;-3.124;2023-02-08T16:15:50;34.88;;;12.88;;
47009;SDS011;59230;54.164;-3.124;2023-02-08T16:18:33;34.35;;;12.60;;
47009;SDS011;59230;54.164;-3.124;2023-02-08T16:21:04;31.80;;;12.70;;
47009;SDS011;59230;54.164;-3.124;2023-02-08T16:26:41;44.55;;;13.18;;
47009;SDS011;59230;54.164;-3.124;2023-02-08T16:31:44;35.78;;;15.10;;
47009;SDS011;59230;54.164;-3.124;2023-02-08T16:34:20;43.75;;;14.07;;
47009;SDS011;59230;54.164;-3.124;2023-02-08T16:36:50;39.53;;;14.23;;
47009;SDS011;59230;54.164;-3.124;2023-02-08T16:44:28;37.00;;;13.07;;
47009;SDS011;59230;54.164;-3.124;2023-02-08T16:46:58;32.67;;;13.90;;
47009;SDS011;59230;54.164;-3.124;2023-02-08T16:49:28;54.92;;;15.55;;
47009;SDS011;59230;54.164;-3.124;2023-02-08T16:51:57;36.45;;;17.95;;
47009;SDS011;59230;54.164;-3.124;2023-02-08T16:54:26;34.97;;;14.15;;
47009;SDS011;59230;54.164;-3.124;2023-02-08T16:56:56;37.83;;;13.40;;
47009;SDS011;59230;54.164;-3.124;2023-02-08T16:59:24;48.80;;;16.83;;
47009;SDS011;59230;54.164;-3.124;2023-02-08T17:01:52;52.35;;;22.17;;
47009;SDS011;59230;54.164;-3.124;2023-02-08T17:04:20;42.17;;;15.25;;